Time;durP1;ratioP1;P1;durP2;ratioP2;P2;SDS_P1;SDS_P2;PMS_P1;PMS_P2;Temp;Humidity;BMP_temperature;BMP_pressure;BME280_temperature;BME280_humidity;BME280_pressure;Samples;Min_cycle;Max_cycle;Signal;HPM_P1;HPM_P2
2023/04/17 00:01:06;;;;;;;;;;;;;;;7.37;100.00;102515.22;5001817;28;1094;-77
2023/04/17 00:03:31;;;;;;;;;;;;;;;7.37;100.00;102512.66;5007024;28;1075;-78
2023/04/17 00:05:57;;;;;;;;;;;;;;;7.36;100.00;102517.88;5006058;28;1070;-76
2023/04/17 00:08:22;;;;;;;;;;;;;;;7.35;100.00;102519.63;5008267;28;1963;-77
2023/04/17 00:10:47;;;;;;;;;;;;;;;7.33;100.00;102513.66;5005749;28;1100;-77
2023/04/17 00:13:12;;;;;;;;;;;;;;;7.36;100.00;102518.72;5005514;28;1256;-76
2023/04/17 00:15:39;;;;;;;;;;;;;;;7.35;100.00;102522.22;4988159;28;1513;-77
2023/04/17 00:18:04;;;;;;;;;;;;;;;7.35;100.00;102522.22;5005636;28;1003;-78
2023/04/17 00:20:29;;;;;;;;;;;;;;;7.36;100.00;102518.72;5006220;28;907;-77
2023/04/17 00:22:55;;;;;;;;;;;;;;;7.34;100.00;102517.09;5004663;28;1323;-77
2023/04/17 00:25:20;;;;;;;;;;;;;;;7.30;100.00;102518.97;5006121;28;1000;-77
2023/04/17 00:27:45;;;;;;;;;;;;;;;7.29;100.00;102512.16;4987646;28;1953;-76
2023/04/17 00:30:11;;;;;;;;;;;;;;;7.29;100.00;102517.31;4988396;28;1177;-77
2023/04/17 00:32:36;;;;;;;;;;;;;;;7.29;100.00;102512.16;5003672;28;1012;-76
2023/04/17 00:35:02;;;;;;;;;;;;;;;7.28;100.00;102517.34;4982888;28;1558;-78
2023/04/17 00:37:27;;;;;;;;;;;;;;;7.28;100.00;102510.44;5005358;28;1155;-77
2023/04/17 00:39:52;;;;;;;;;;;;;;;7.28;100.00;102507.84;5005561;28;1426;-77
2023/04/17 00:42:18;;;;;;;;;;;;;;;7.27;100.00;102511.34;4996545;28;1240;-77
2023/04/17 00:44:43;;;;;;;;;;;;;;;7.26;100.00;102501.09;5002414;28;1155;-76
2023/04/17 00:47:08;;;;;;;;;;;;;;;7.23;100.00;102512.41;5005158;28;1093;-77
2023/04/17 00:49:34;;;;;;;;;;;;;;;7.24;100.00;102508.06;5005014;28;1886;-78
2023/04/17 00:52:00;;;;;;;;;;;;;;;7.22;100.00;102497.78;5005123;28;1137;-77
2023/04/17 00:54:25;;;;;;;;;;;;;;;7.22;100.00;102500.38;5003525;28;1138;-77
2023/04/17 00:56:53;;;;;;;;;;;;;;;7.22;100.00;102499.53;4982750;28;1138;-79
2023/04/17 00:59:18;;;;;;;;;;;;;;;7.22;100.00;102500.38;5005941;28;1101;-79
2023/04/17 01:01:43;;;;;;;;;;;;;;;7.23;100.00;102506.41;5004523;28;1223;-79
2023/04/17 01:04:09;;;;;;;;;;;;;;;7.19;100.00;102496.19;5004165;28;1374;-77
2023/04/17 01:06:35;;;;;;;;;;;;;;;7.18;100.00;102493.66;4997013;28;1077;-78
2023/04/17 01:09:00;;;;;;;;;;;;;;;7.18;100.00;102501.41;5003676;28;1968;-79
2023/04/17 01:11:25;;;;;;;;;;;;;;;7.17;100.00;102497.16;4998032;28;1050;-76
2023/04/17 01:13:51;;;;;;;;;;;;;;;7.16;100.00;102500.63;4990084;28;1427;-77
2023/04/17 01:16:17;;;;;;;;;;;;;;;7.15;100.00;102501.53;4988370;28;1031;-77
2023/04/17 01:18:42;;;;;;;;;;;;;;;7.13;100.00;102509.34;5005290;28;1068;-78
2023/04/17 01:21:07;;;;;;;;;;;;;;;7.15;100.00;102509.25;4985989;28;1276;-76
2023/04/17 01:23:48;;;;;;;;;;;;;;;7.11;100.00;102503.41;5006121;28;1007;-76
2023/04/17 01:26:21;;;;;;;;;;;;;;;7.08;100.00;102497.53;5006388;28;1101;-78
2023/04/17 01:29:04;;;;;;;;;;;;;;;7.05;100.00;102503.63;5008854;28;1894;-77
2023/04/17 01:31:30;;;;;;;;;;;;;;;7.02;100.00;102508.09;4998730;28;1168;-76
2023/04/17 01:33:55;;;;;;;;;;;;;;;6.99;100.00;102513.34;5009847;28;1059;-81
2023/04/17 01:36:20;;;;;;;;;;;;;;;6.98;100.00;102506.50;4998944;28;986;-77
2023/04/17 01:38:45;;;;;;;;;;;;;;;6.98;100.00;102517.66;4989711;28;1432;-76
2023/04/17 01:41:11;;;;;;;;;;;;;;;6.97;100.00;102510.84;4990606;28;1268;-76
2023/04/17 01:43:37;;;;;;;;;;;;;;;6.97;100.00;102510.00;5009318;28;1066;-77
2023/04/17 01:46:02;;;;;;;;;;;;;;;6.97;100.00;102515.16;4990988;28;1282;-77
2023/04/17 01:48:27;;;;;;;;;;;;;;;6.96;100.00;102518.66;5008856;28;1894;-77
2023/04/17 01:50:53;;;;;;;;;;;;;;;6.95;100.00;102524.72;5009078;28;995;-77
2023/04/17 01:53:18;;;;;;;;;;;;;;;6.92;100.00;102513.59;5006577;28;1295;-76
2023/04/17 01:55:43;;;;;;;;;;;;;;;6.95;100.00;102516.97;5013540;28;1167;-76
2023/04/17 01:58:08;;;;;;;;;;;;;;;6.89;100.00;102518.06;5007720;28;1233;-77
2023/04/17 02:00:34;;;;;;;;;;;;;;;6.89;100.00;102518.06;5001268;28;1084;-78
2023/04/17 02:02:59;;;;;;;;;;;;;;;6.89;100.00;102524.06;5004790;28;1118;-80
2023/04/17 02:05:24;;;;;;;;;;;;;;;6.85;100.00;102525.06;5008983;28;1106;-76
2023/04/17 02:07:50;;;;;;;;;;;;;;;6.83;100.00;102521.72;4987885;28;1894;-77
2023/04/17 02:10:15;;;;;;;;;;;;;;;6.79;100.00;102522.72;4989231;28;1237;-77
2023/04/17 02:12:40;;;;;;;;;;;;;;;6.71;100.00;102519.59;4991138;28;1195;-77
2023/04/17 02:15:06;;;;;;;;;;;;;;;6.68;100.00;102524.88;5007971;28;1107;-78
2023/04/17 02:17:31;;;;;;;;;;;;;;;6.67;100.00;102523.19;5008105;28;1008;-77
2023/04/17 02:19:56;;;;;;;;;;;;;;;6.64;100.00;102520.72;4989750;28;1251;-77
2023/04/17 02:22:22;;;;;;;;;;;;;;;6.64;100.00;102523.28;5000622;28;1347;-76
2023/04/17 02:24:47;;;;;;;;;;;;;;;6.65;100.00;102524.97;5006987;28;1192;-76
2023/04/17 02:27:12;;;;;;;;;;;;;;;6.66;100.00;102516.34;5007050;28;1172;-80
2023/04/17 02:29:37;;;;;;;;;;;;;;;6.65;100.00;102514.66;5002659;28;1965;-77
2023/04/17 02:32:02;;;;;;;;;;;;;;;6.67;100.00;102512.03;5006148;28;1152;-77
2023/04/17 02:34:28;;;;;;;;;;;;;;;6.67;100.00;102512.88;5008170;28;1075;-76
2023/04/17 02:36:53;;;;;;;;;;;;;;;6.67;100.00;102512.03;5004145;28;1271;-76
2023/04/17 02:39:18;;;;;;;;;;;;;;;6.67;100.00;102518.03;5005496;28;1007;-76
2023/04/17 02:41:43;;;;;;;;;;;;;;;6.65;100.00;102514.66;4989616;28;1137;-79
2023/04/17 02:44:08;;;;;;;;;;;;;;;6.65;100.00;102517.22;5003975;28;1897;-78
2023/04/17 02:46:34;;;;;;;;;;;;;;;6.66;100.00;102513.78;5003111;28;1188;-77
2023/04/17 02:48:59;;;;;;;;;;;;;;;6.66;100.00;102513.78;5006156;28;1957;-79
2023/04/17 02:51:25;;;;;;;;;;;;;;;6.65;100.00;102524.97;4988842;28;1303;-77
2023/04/17 02:53:50;;;;;;;;;;;;;;;6.67;100.00;102512.88;5008287;28;1015;-77
2023/04/17 02:56:16;;;;;;;;;;;;;;;6.66;100.00;102516.34;4998699;28;1332;-77
2023/04/17 02:58:43;;;;;;;;;;;;;;;6.65;100.00;102514.66;5007120;28;1094;-78
2023/04/17 03:01:09;;;;;;;;;;;;;;;6.65;100.00;102519.81;4992254;28;1275;-77
2023/04/17 03:03:37;;;;;;;;;;;;;;;6.67;100.00;102522.34;5007739;28;1089;-80
2023/04/17 03:06:02;;;;;;;;;;;;;;;6.67;100.00;102523.19;5005280;28;1406;-77
2023/04/17 03:08:28;;;;;;;;;;;;;;;6.65;100.00;102524.97;4989041;28;1963;-79
2023/04/17 03:10:54;;;;;;;;;;;;;;;6.65;100.00;102524.97;5003455;28;1087;-77
2023/04/17 03:13:19;;;;;;;;;;;;;;;6.63;100.00;102526.78;5007048;28;1105;-78
2023/04/17 03:15:44;;;;;;;;;;;;;;;6.63;100.00;102526.78;4988546;28;1212;-77
2023/04/17 03:18:10;;;;;;;;;;;;;;;6.63;100.00;102526.78;5004725;28;1284;-77
2023/04/17 03:20:35;;;;;;;;;;;;;;;6.63;100.00;102526.78;4989440;28;1258;-76
2023/04/17 03:23:00;;;;;;;;;;;;;;;6.61;100.00;102533.75;5005834;28;1162;-77
2023/04/17 03:25:25;;;;;;;;;;;;;;;6.59;100.00;102535.50;5006327;28;994;-78
2023/04/17 03:27:50;;;;;;;;;;;;;;;6.58;100.00;102528.69;5005637;28;1894;-77
2023/04/17 03:30:16;;;;;;;;;;;;;;;6.57;100.00;102527.00;5005527;28;1205;-77
2023/04/17 03:32:41;;;;;;;;;;;;;;;6.58;100.00;102528.69;5000440;28;1054;-79
2023/04/17 03:35:06;;;;;;;;;;;;;;;6.58;100.00;102523.53;5002886;28;1138;-77
2023/04/17 03:37:32;;;;;;;;;;;;;;;6.57;100.00;102521.84;5000390;28;1041;-77
2023/04/17 03:39:57;;;;;;;;;;;;;;;6.57;100.00;102519.28;5006314;28;1141;-80
2023/04/17 03:42:23;;;;;;;;;;;;;;;6.56;100.00;102525.34;5006171;28;965;-77
2023/04/17 03:44:48;;;;;;;;;;;;;;;6.53;100.00;102521.13;4999724;28;1035;-78
2023/04/17 03:47:13;;;;;;;;;;;;;;;6.53;100.00;102525.44;5001322;28;1314;-77
2023/04/17 03:49:39;;;;;;;;;;;;;;;6.51;100.00;102528.06;4996588;28;1890;-76
2023/04/17 03:52:04;;;;;;;;;;;;;;;6.52;100.00;102518.59;4989023;28;1188;-79
2023/04/17 03:54:34;;;;;;;;;;;;;;;6.50;100.00;102520.41;5004984;28;1207;-77
2023/04/17 03:57:00;;;;;;;;;;;;;;;6.46;100.00;102519.66;4987443;28;1437;-78
2023/04/17 03:59:25;;;;;;;;;;;;;;;6.46;100.00;102518.84;5004760;28;1136;-77
2023/04/17 04:01:52;;;;;;;;;;;;;;;6.44;100.00;102525.78;4989200;28;1177;-78
2023/04/17 04:04:18;;;;;;;;;;;;;;;6.46;100.00;102531.72;4998577;28;1101;-77
2023/04/17 04:06:43;;;;;;;;;;;;;;;6.49;100.00;102534.19;5002138;28;1152;-76
2023/04/17 04:09:09;;;;;;;;;;;;;;;6.47;100.00;102525.66;5003715;28;1957;-77
2023/04/17 04:11:34;;;;;;;;;;;;;;;6.47;100.00;102530.81;4987773;28;1357;-76
2023/04/17 04:13:59;;;;;;;;;;;;;;;6.43;100.00;102526.69;5007013;28;1042;-76
2023/04/17 04:16:26;;;;;;;;;;;;;;;6.43;100.00;102531.84;5007048;28;1084;-76
2023/04/17 04:18:51;;;;;;;;;;;;;;;6.42;100.00;102537.88;5008272;28;1164;-79
2023/04/17 04:21:16;;;;;;;;;;;;;;;6.38;100.00;102532.84;4988702;28;1410;-80
2023/04/17 04:23:44;;;;;;;;;;;;;;;6.36;100.00;102524.31;4983429;28;1153;-80
2023/04/17 04:26:10;;;;;;;;;;;;;;;6.36;100.00;102532.03;5003556;28;1252;-80
2023/04/17 04:28:36;;;;;;;;;;;;;;;6.36;100.00;102536.34;4989201;28;1946;-79
2023/04/17 04:31:03;;;;;;;;;;;;;;;6.33;100.00;102529.59;5007974;28;1055;-80
2023/04/17 04:33:28;;;;;;;;;;;;;;;6.30;100.00;102532.28;5008788;28;1128;-80
2023/04/17 04:35:55;;;;;;;;;;;;;;;6.30;100.00;102540.00;5007233;28;1011;-80
2023/04/17 04:38:28;;;;;;;;;;;;;;;6.29;100.00;102533.16;5002068;28;1078;-80
2023/04/17 04:41:00;;;;;;;;;;;;;;;6.30;100.00;102540.00;5007988;28;1211;-80
2023/04/17 04:43:27;;;;;;;;;;;;;;;6.28;100.00;102538.38;5006959;28;948;-81
2023/04/17 04:45:52;;;;;;;;;;;;;;;6.31;100.00;102541.72;5009242;28;1258;-80
2023/04/17 04:48:17;;;;;;;;;;;;;;;6.31;100.00;102544.28;4982594;28;2322;-79
2023/04/17 04:50:43;;;;;;;;;;;;;;;6.32;100.00;102551.13;4987742;28;1324;-79
2023/04/17 04:53:08;;;;;;;;;;;;;;;6.33;100.00;102550.22;5001260;28;1197;-79
2023/04/17 04:55:33;;;;;;;;;;;;;;;6.35;100.00;102548.41;5008974;28;1058;-79
2023/04/17 04:57:58;;;;;;;;;;;;;;;6.36;100.00;102550.09;4990384;28;1266;-79
2023/04/17 05:00:24;;;;;;;;;;;;;;;6.35;100.00;102553.56;4986111;28;1200;-80
2023/04/17 05:02:49;;;;;;;;;;;;;;;6.36;100.00;102555.25;5013487;28;1272;-79
2023/04/17 05:05:14;;;;;;;;;;;;;;;6.36;100.00;102550.09;4989490;28;1111;-79
2023/04/17 05:07:40;;;;;;;;;;;;;;;6.36;100.00;102555.25;5006479;28;1038;-79
2023/04/17 05:10:05;;;;;;;;;;;;;;;6.38;100.00;102548.31;5009787;28;1894;-79
2023/04/17 05:12:31;;;;;;;;;;;;;;;6.39;100.00;102562.88;5001981;28;1388;-80
2023/04/17 05:14:57;;;;;;;;;;;;;;;6.41;100.00;102556.81;5013934;28;1470;-81
2023/04/17 05:17:22;;;;;;;;;;;;;;;6.41;100.00;102564.56;4988823;28;1496;-80
2023/04/17 05:19:47;;;;;;;;;;;;;;;6.41;100.00;102569.69;5013376;28;1124;-81
2023/04/17 05:22:12;;;;;;;;;;;;;;;6.42;100.00;102574.78;4980289;28;1205;-80
2023/04/17 05:24:37;;;;;;;;;;;;;;;6.42;100.00;102569.63;5004694;28;1152;-81
2023/04/17 05:27:03;;;;;;;;;;;;;;;6.39;100.00;102562.88;5006934;28;1113;-82
2023/04/17 05:29:29;;;;;;;;;;;;;;;6.45;100.00;102577.28;4992080;28;1899;-80
2023/04/17 05:31:54;;;;;;;;;;;;;;;6.47;100.00;102584.94;4992277;28;1200;-80
2023/04/17 05:34:19;;;;;;;;;;;;;;;6.46;100.00;102580.69;5007613;28;1211;-81
2023/04/17 05:36:45;;;;;;;;;;;;;;;6.46;100.00;102575.53;5009725;28;1120;-80
2023/04/17 05:39:10;;;;;;;;;;;;;;;6.47;100.00;102578.03;5004676;28;1334;-80
2023/04/17 05:41:35;;;;;;;;;;;;;;;6.50;100.00;102574.53;4993435;28;1252;-80
2023/04/17 05:44:00;;;;;;;;;;;;;;;6.52;100.00;102575.31;4991522;28;1267;-81
2023/04/17 05:46:25;;;;;;;;;;;;;;;6.55;100.00;102575.22;5005519;28;1227;-81
2023/04/17 05:48:51;;;;;;;;;;;;;;;6.61;100.00;102575.00;5000506;28;1894;-81
2023/04/17 05:51:16;;;;;;;;;;;;;;;6.63;100.00;102575.75;4997134;28;1147;-81
2023/04/17 05:53:43;;;;;;;;;;;;;;;6.64;100.00;102580.00;5007784;28;1508;-80
2023/04/17 05:56:08;;;;;;;;;;;;;;;6.66;100.00;102588.56;4991596;28;1332;-81
2023/04/17 05:58:34;;;;;;;;;;;;;;;6.66;100.00;102583.41;5010165;28;1115;-80
2023/04/17 06:01:01;;;;;;;;;;;;;;;6.67;100.00;102585.06;5004950;28;1379;-80
2023/04/17 06:03:26;;;;;;;;;;;;;;;6.66;100.00;102593.72;5008295;28;1200;-80
2023/04/17 06:05:51;;;;;;;;;;;;;;;6.67;100.00;102597.13;5007753;28;1290;-80
2023/04/17 06:08:16;;;;;;;;;;;;;;;6.67;100.00;102595.38;5008362;28;1954;-80
2023/04/17 06:10:44;;;;;;;;;;;;;;;6.62;100.00;102592.97;4988218;28;1421;-80
2023/04/17 06:13:09;;;;;;;;;;;;;;;6.59;100.00;102587.91;4989885;28;1334;-80
2023/04/17 06:15:35;;;;;;;;;;;;;;;6.57;100.00;102588.88;5003727;28;1163;-80
2023/04/17 06:18:00;;;;;;;;;;;;;;;6.59;100.00;102592.22;4981423;28;1438;-80
2023/04/17 06:20:25;;;;;;;;;;;;;;;6.61;100.00;102590.47;4992164;28;1430;-80
2023/04/17 06:22:51;;;;;;;;;;;;;;;6.65;100.00;102589.41;5009633;28;977;-78
2023/04/17 06:25:17;;;;;;;;;;;;;;;6.70;100.00;102594.41;5003174;28;1113;-81
2023/04/17 06:27:42;;;;;;;;;;;;;;;6.70;100.00;102602.16;5005734;28;1095;-80
2023/04/17 06:30:07;;;;;;;;;;;;;;;6.71;100.00;102596.97;4991429;28;1969;-81
2023/04/17 06:32:32;;;;;;;;;;;;;;;6.76;100.00;102599.34;5009295;28;1060;-80
2023/04/17 06:34:58;;;;;;;;;;;;;;;6.75;100.00;102598.50;5001231;28;1102;-80
2023/04/17 06:37:23;;;;;;;;;;;;;;;6.76;100.00;102605.34;4989818;28;1364;-81
2023/04/17 06:39:48;;;;;;;;;;;;;;;6.76;100.00;102605.34;4982152;28;1306;-80
2023/04/17 06:42:15;;;;;;;;;;;;;;;6.73;100.00;102600.31;4993767;28;1228;-80
2023/04/17 06:44:40;;;;;;;;;;;;;;;6.71;100.00;102620.16;5008890;28;1404;-80
2023/04/17 06:47:05;;;;;;;;;;;;;;;6.71;100.00;102617.59;5007234;28;1106;-80
2023/04/17 06:49:31;;;;;;;;;;;;;;;6.73;100.00;102610.63;4991334;28;1898;-80
2023/04/17 06:51:57;;;;;;;;;;;;;;;6.73;100.00;102626.09;5007851;28;1171;-80
2023/04/17 06:54:22;;;;;;;;;;;;;;;6.75;100.00;102624.28;4987945;28;1229;-80
2023/04/17 06:56:47;;;;;;;;;;;;;;;6.77;100.00;102627.69;5006345;28;1377;-81
2023/04/17 06:59:13;;;;;;;;;;;;;;;6.78;100.00;102619.03;5007667;28;1262;-81
2023/04/17 07:01:39;;;;;;;;;;;;;;;6.79;100.00;102636.19;4989677;28;1208;-80
2023/04/17 07:04:04;;;;;;;;;;;;;;;6.78;100.00;102619.03;5007961;28;1151;-80
2023/04/17 07:06:32;;;;;;;;;;;;;;;6.79;100.00;102630.19;5006240;28;1422;-80
2023/04/17 07:08:57;;;;;;;;;;;;;;;6.79;100.00;102631.03;5004999;28;1941;-80
2023/04/17 07:11:23;;;;;;;;;;;;;;;6.80;100.00;102634.44;5008068;28;1234;-80
2023/04/17 07:13:48;;;;;;;;;;;;;;;6.80;100.00;102640.44;5004810;28;1115;-80
2023/04/17 07:16:13;;;;;;;;;;;;;;;6.81;100.00;102639.53;4984225;28;1188;-80
2023/04/17 07:18:38;;;;;;;;;;;;;;;6.82;100.00;102641.22;5007316;28;1088;-80
2023/04/17 07:21:03;;;;;;;;;;;;;;;6.81;100.00;102644.69;4996162;28;1156;-81
2023/04/17 07:23:29;;;;;;;;;;;;;;;6.82;100.00;102651.53;5006469;28;1113;-80
2023/04/17 07:25:54;;;;;;;;;;;;;;;6.83;100.00;102648.09;4998272;28;1177;-80
2023/04/17 07:28:20;;;;;;;;;;;;;;;6.81;100.00;102649.84;4990667;28;1941;-81
2023/04/17 07:30:45;;;;;;;;;;;;;;;6.81;100.00;102655.00;5014848;28;1357;-81
2023/04/17 07:33:10;;;;;;;;;;;;;;;6.85;100.00;102655.75;5009061;28;1110;-80
2023/04/17 07:35:35;;;;;;;;;;;;;;;6.84;100.00;102660.06;5009064;28;1227;-80
2023/04/17 07:38:02;;;;;;;;;;;;;;;6.88;100.00;102665.94;4993608;28;946;-80
2023/04/17 07:40:28;;;;;;;;;;;;;;;6.88;100.00;102661.66;5004506;28;1151;-81
2023/04/17 07:42:55;;;;;;;;;;;;;;;6.89;100.00;102658.16;5006210;28;1627;-80
2023/04/17 07:45:20;;;;;;;;;;;;;;;6.92;100.00;102658.03;5005281;28;1413;-80
2023/04/17 07:47:45;;;;;;;;;;;;;;;6.93;100.00;102664.03;5005104;28;1200;-81
2023/04/17 07:50:10;;;;;;;;;;;;;;;6.95;100.00;102661.44;4978706;28;1902;-80
2023/04/17 07:52:36;;;;;;;;;;;;;;;6.98;100.00;102661.28;5009024;28;1313;-80
2023/04/17 07:55:01;;;;;;;;;;;;;;;6.98;100.00;102667.28;5005846;28;1404;-80
2023/04/17 07:57:26;;;;;;;;;;;;;;;6.99;100.00;102668.13;4983988;28;1287;-81
2023/04/17 07:59:54;;;;;;;;;;;;;;;6.99;100.00;102668.13;5004693;28;1400;-80
2023/04/17 08:02:19;;;;;;;;;;;;;;;7.03;100.00;102664.56;4996896;28;1399;-80
2023/04/17 08:04:45;;;;;;;;;;;;;;;7.08;100.00;102665.22;4998976;28;1102;-80
2023/04/17 08:07:11;;;;;;;;;;;;;;;7.15;100.00;102666.66;5006577;28;1090;-80
2023/04/17 08:09:36;;;;;;;;;;;;;;;7.17;100.00;102667.47;4983364;28;1899;-80
2023/04/17 08:12:02;;;;;;;;;;;;;;;7.17;100.00;102668.31;4985137;28;1176;-80
2023/04/17 08:14:27;;;;;;;;;;;;;;;7.19;100.00;102660.50;4988462;28;1351;-80
2023/04/17 08:16:52;;;;;;;;;;;;;;;7.25;100.00;102659.44;5001021;28;1232;-80
2023/04/17 08:19:18;;;;;;;;;;;;;;;7.30;100.00;102663.50;5005763;28;1272;-81
2023/04/17 08:21:43;;;;;;;;;;;;;;;7.35;100.00;102666.75;4986872;28;1199;-80
2023/04/17 08:24:08;;;;;;;;;;;;;;;7.41;100.00;102661.34;5006619;28;1138;-80
2023/04/17 08:26:34;;;;;;;;;;;;;;;7.49;100.00;102668.78;5007391;28;1066;-80
2023/04/17 08:29:03;;;;;;;;;;;;;;;7.51;100.00;102671.31;5005258;28;1914;-81
2023/04/17 08:31:28;;;;;;;;;;;;;;;7.52;100.00;102678.19;4995898;28;1322;-80
2023/04/17 08:33:54;;;;;;;;;;;;;;;7.52;100.00;102670.44;5004660;28;1541;-81
2023/04/17 08:36:19;;;;;;;;;;;;;;;7.56;100.00;102671.97;4996816;28;1354;-80
2023/04/17 08:38:46;;;;;;;;;;;;;;;7.61;100.00;102663.16;5009034;28;1018;-80
2023/04/17 08:41:14;;;;;;;;;;;;;;;7.68;100.00;102668.91;4987753;28;1321;-80
2023/04/17 08:43:40;;;;;;;;;;;;;;;7.76;100.00;102672.03;5009306;28;1115;-80
2023/04/17 08:46:06;;;;;;;;;;;;;;;7.81;100.00;102670.13;5012154;28;1144;-80
2023/04/17 08:48:31;;;;;;;;;;;;;;;7.89;100.00;102673.22;5012572;28;1894;-80
2023/04/17 08:50:57;;;;;;;;;;;;;;;7.95;100.00;102672.13;5006172;28;1330;-80
2023/04/17 08:53:22;;;;;;;;;;;;;;;7.95;100.00;102672.97;5009403;28;1197;-80
2023/04/17 08:55:47;;;;;;;;;;;;;;;7.97;100.00;102671.16;5009368;28;1145;-80
2023/04/17 08:58:13;;;;;;;;;;;;;;;8.03;100.00;102670.09;4992653;28;1194;-80
2023/04/17 09:00:38;;;;;;;;;;;;;;;8.12;100.00;102669.69;5008693;28;1315;-82
2023/04/17 09:03:07;;;;;;;;;;;;;;;8.19;100.00;102665.09;5004514;28;1391;-80
2023/04/17 09:05:33;;;;;;;;;;;;;;;8.29;100.00;102670.72;4987117;28;1200;-80
2023/04/17 09:08:05;;;;;;;;;;;;;;;8.36;100.00;102665.25;5008371;28;1973;-80
2023/04/17 09:10:34;;;;;;;;;;;;;;;8.44;100.00;102667.53;4999792;28;1433;-80
2023/04/17 09:13:00;;;;;;;;;;;;;;;8.50;100.00;102670.69;5009157;28;1097;-80
2023/04/17 09:15:25;;;;;;;;;;;;;;;8.57;100.00;102670.41;5012293;28;1142;-80
2023/04/17 09:17:51;;;;;;;;;;;;;;;8.57;100.00;102680.75;5005635;28;1112;-81
2023/04/17 09:20:16;;;;;;;;;;;;;;;8.62;100.00;102676.22;5005670;28;1357;-80
2023/04/17 09:22:41;;;;;;;;;;;;;;;8.69;100.00;102680.22;5009741;28;1161;-80
2023/04/17 09:25:19;;;;;;;;;;;;;;;8.76;100.00;102684.22;5009866;28;1097;-80
2023/04/17 09:27:45;;;;;;;;;;;;;;;8.77;100.00;102679.00;4988361;28;1631;-80
2023/04/17 09:30:10;;;;;;;;;;;;;;;8.82;99.55;102680.50;5007562;28;1918;-80
2023/04/17 09:32:36;;;;;;;;;;;;;;;8.89;100.00;102682.78;5007487;28;1190;-80
2023/04/17 09:35:02;;;;;;;;;;;;;;;9.02;100.00;102681.31;5002727;28;1365;-79
2023/04/17 09:38:03;;;;;;;;;;;;;;;9.11;99.62;102684.38;5006862;28;1225;-80
2023/04/17 09:40:35;;;;;;;;;;;;;;;9.22;99.05;102689.91;4966869;28;1416;-79
2023/04/17 09:43:01;;;;;;;;;;;;;;;9.30;99.22;102685.22;5003249;28;1149;-80
2023/04/17 09:45:32;;;;;;;;;;;;;;;9.35;99.01;102685.84;5010402;28;1270;-80
2023/04/17 09:47:57;;;;;;;;;;;;;;;9.42;97.65;102686.41;5008322;28;1336;-80
2023/04/17 09:50:26;;;;;;;;;;;;;;;9.48;97.23;102684.34;5003268;28;1107;-79
2023/04/17 09:52:51;;;;;;;;;;;;;;;9.55;97.53;102685.72;5008695;28;1393;-80
2023/04/17 09:55:20;;;;;;;;;;;;;;;9.76;97.32;102681.28;5000176;28;1162;-80
2023/04/17 09:57:45;;;;;;;;;;;;;;;9.94;97.76;102679.53;5006785;28;1441;-80
2023/04/17 10:00:13;;;;;;;;;;;;;;;10.08;94.23;102692.66;4991108;28;1285;-80
2023/04/17 10:02:40;;;;;;;;;;;;;;;10.15;96.69;102687.16;5004967;28;1171;-80
2023/04/17 10:05:07;;;;;;;;;;;;;;;10.23;94.82;102687.63;4990369;28;1178;-80
2023/04/17 10:07:35;;;;;;;;;;;;;;;10.32;94.89;102689.78;5009554;28;955;-80
2023/04/17 10:10:02;;;;;;;;;;;;;;;10.41;90.69;102691.91;5006186;28;1890;-80
2023/04/17 10:12:27;;;;;;;;;;;;;;;10.48;92.35;102688.06;5009067;28;1097;-80
2023/04/17 10:14:53;;;;;;;;;;;;;;;10.57;91.45;102690.22;5008533;28;1135;-80
2023/04/17 10:17:30;;;;;;;;;;;;;;;10.66;90.48;102682.84;5008531;28;1234;-80
2023/04/17 10:19:55;;;;;;;;;;;;;;;10.71;87.46;102691.25;5000577;28;1171;-80
2023/04/17 10:22:20;;;;;;;;;;;;;;;10.69;85.75;102687.91;4990686;28;1280;-80
2023/04/17 10:25:11;;;;;;;;;;;;;;;10.69;88.12;102682.72;5005062;28;1139;-80
2023/04/17 10:27:37;;;;;;;;;;;;;;;10.69;85.87;102682.72;5004893;28;1225;-80
2023/04/17 10:30:04;;;;;;;;;;;;;;;10.67;87.09;102676.75;4994931;28;1922;-80
2023/04/17 10:32:30;;;;;;;;;;;;;;;10.71;89.08;102678.25;5005114;28;1117;-80
2023/04/17 10:34:56;;;;;;;;;;;;;;;10.74;85.22;102675.53;5009387;28;1101;-79
2023/04/17 10:37:43;;;;;;;;;;;;;;;10.72;86.34;102677.34;5007567;28;1172;-80
2023/04/17 10:40:09;;;;;;;;;;;;;;;10.73;86.08;102673.84;4981719;28;1367;-80
2023/04/17 10:42:34;;;;;;;;;;;;;;;10.70;84.00;102684.38;5000292;28;1429;-80
2023/04/17 10:45:03;;;;;;;;;;;;;;;10.64;83.82;102681.19;5009700;28;1417;-80
2023/04/17 10:47:30;;;;;;;;;;;;;;;10.64;86.30;102676.00;4990130;28;1236;-80
2023/04/17 10:49:59;;;;;;;;;;;;;;;10.69;86.00;102677.53;5006557;28;1887;-80
2023/04/17 10:52:33;;;;;;;;;;;;;;;10.73;87.70;102676.44;5008143;28;1138;-80
2023/04/17 10:55:19;;;;;;;;;;;;;;;10.76;85.82;102671.06;5007561;28;1359;-79
2023/04/17 10:57:58;;;;;;;;;;;;;;;10.82;84.93;102673.34;4984030;28;1698;-79
2023/04/17 11:00:35;;;;;;;;;;;;;;;10.88;84.10;102673.84;5004505;28;1244;-80
2023/04/17 11:03:01;;;;;;;;;;;;;;;11.04;80.92;102667.84;4990527;28;1441;-80
2023/04/17 11:05:27;;;;;;;;;;;;;;;11.12;81.92;102661.31;5000124;28;1293;-80
2023/04/17 11:07:52;;;;;;;;;;;;;;;11.21;81.67;102664.34;4985888;28;1311;-80
2023/04/17 11:10:19;;;;;;;;;;;;;;;11.30;82.71;102663.84;4987360;28;1898;-79
2023/04/17 11:12:44;;;;;;;;;;;;;;;11.33;77.44;102663.66;5002883;28;1459;-80
2023/04/17 11:15:10;;;;;;;;;;;;;;;11.35;79.16;102667.00;4979882;28;1192;-79
2023/04/17 11:17:37;;;;;;;;;;;;;;;11.35;78.74;102667.00;4999563;28;1240;-80
2023/04/17 11:20:03;;;;;;;;;;;;;;;11.32;77.19;102667.19;5006280;28;1282;-80
2023/04/17 11:22:32;;;;;;;;;;;;;;;11.34;78.25;102654.94;4985746;28;1192;-80
2023/04/17 11:24:57;;;;;;;;;;;;;;;11.37;77.76;102659.97;5007159;28;1186;-80
2023/04/17 11:27:23;;;;;;;;;;;;;;;11.40;75.96;102664.97;4997528;28;1123;-80
2023/04/17 11:29:48;;;;;;;;;;;;;;;11.42;76.65;102652.75;4985878;28;1953;-80
2023/04/17 11:32:13;;;;;;;;;;;;;;;11.49;79.29;102653.25;5002364;28;1434;-80
2023/04/17 11:34:39;;;;;;;;;;;;;;;11.56;79.29;102655.41;5008359;28;1165;-79
2023/04/17 11:37:05;;;;;;;;;;;;;;;11.63;78.96;102659.31;5003799;28;1243;-80
2023/04/17 11:39:31;;;;;;;;;;;;;;;11.74;78.57;102652.69;5004094;28;1380;-79
2023/04/17 11:41:57;;;;;;;;;;;;;;;11.84;78.95;102648.69;5006357;28;1479;-79
2023/04/17 11:44:23;;;;;;;;;;;;;;;12.01;78.83;102643.31;5005433;28;1081;-79
2023/04/17 11:46:49;;;;;;;;;;;;;;;12.15;76.47;102640.72;4987314;28;1325;-79
2023/04/17 11:49:14;;;;;;;;;;;;;;;12.18;78.26;102648.38;4988953;28;2030;-79
2023/04/17 11:51:43;;;;;;;;;;;;;;;12.21;77.10;102647.34;5006181;28;1310;-79
2023/04/17 11:54:08;;;;;;;;;;;;;;;12.35;78.24;102654.34;5003558;28;989;-79
2023/04/17 11:56:33;;;;;;;;;;;;;;;12.48;75.99;102650.06;5006189;28;1093;-80
2023/04/17 11:59:00;;;;;;;;;;;;;;;12.54;76.45;102644.47;5003029;28;1432;-80
2023/04/17 12:01:27;;;;;;;;;;;;;;;12.53;74.72;102637.63;5006766;28;1207;-80
2023/04/17 12:03:53;;;;;;;;;;;;;;;12.54;72.79;102649.69;5008477;28;1135;-79
2023/04/17 12:06:18;;;;;;;;;;;;;;;12.53;72.46;102648.03;4990402;28;1189;-79
2023/04/17 12:08:53;;;;;;;;;;;;;;;12.53;71.53;102645.41;5004443;28;1985;-79
2023/04/17 12:11:23;;;;;;;;;;;;;;;12.64;74.39;102639.56;4995943;28;1313;-80
2023/04/17 12:13:49;;;;;;;;;;;;;;;12.66;70.82;102643.72;4979927;28;1296;-79
2023/04/17 12:16:14;;;;;;;;;;;;;;;12.71;67.96;102644.28;4999069;28;1330;-80
2023/04/17 12:18:39;;;;;;;;;;;;;;;12.81;70.07;102646.34;5005643;28;1335;-79
2023/04/17 12:21:04;;;;;;;;;;;;;;;12.93;67.00;102640.34;4988429;28;1158;-80
2023/04/17 12:23:30;;;;;;;;;;;;;;;13.08;69.54;102644.63;5005239;28;1189;-79
2023/04/17 12:25:55;;;;;;;;;;;;;;;13.06;68.67;102636.03;5003449;28;1068;-79
2023/04/17 12:28:21;;;;;;;;;;;;;;;13.14;64.90;102641.63;5005080;28;1977;-80
2023/04/17 12:30:46;;;;;;;;;;;;;;;13.20;64.28;102643.84;4997162;28;998;-79
2023/04/17 12:33:11;;;;;;;;;;;;;;;13.31;66.49;102639.75;5006751;28;1129;-79
2023/04/17 12:35:37;;;;;;;;;;;;;;;13.46;65.82;102633.53;5006714;28;1082;-79
2023/04/17 12:38:02;;;;;;;;;;;;;;;13.40;61.57;102633.91;4988766;28;1307;-80
2023/04/17 12:40:27;;;;;;;;;;;;;;;13.47;61.91;102636.03;5005337;28;1199;-79
2023/04/17 12:42:52;;;;;;;;;;;;;;;13.52;62.38;102649.59;5006990;28;1136;-79